createdAt,value
2018-12-13T00:01:04.289Z,1.70
2018-12-13T00:03:32.181Z,1.80
2018-12-13T00:06:00.553Z,1.70
2018-12-13T00:08:28.842Z,1.70
2018-12-13T00:10:56.333Z,1.80
2018-12-13T00:13:23.810Z,1.90
2018-12-13T00:15:51.537Z,1.80
2018-12-13T00:18:19.011Z,1.80
2018-12-13T00:20:46.957Z,1.70
2018-12-13T00:23:14.461Z,1.60
2018-12-13T00:25:41.991Z,1.70
2018-12-13T00:28:10.349Z,1.70
2018-12-13T00:30:37.833Z,1.60
2018-12-13T00:33:05.705Z,1.60
2018-12-13T00:35:34.669Z,1.70
2018-12-13T00:38:02.182Z,1.80
2018-12-13T00:40:30.349Z,1.80
2018-12-13T00:42:58.789Z,1.80
2018-12-13T00:45:26.241Z,1.80
2018-12-13T00:47:53.861Z,1.80
2018-12-13T00:50:22.041Z,1.80
2018-12-13T00:52:49.505Z,1.80
2018-12-13T00:55:17.549Z,1.80
2018-12-13T00:57:45.957Z,1.90
2018-12-13T01:00:13.454Z,2.00
2018-12-13T01:02:40.941Z,1.90
2018-12-13T01:05:09.060Z,1.90
2018-12-13T01:07:37.525Z,1.80
2018-12-13T01:10:05.524Z,1.90
2018-12-13T01:12:33.062Z,1.80
2018-12-13T01:15:00.764Z,1.80
2018-12-13T01:17:28.709Z,1.70
2018-12-13T01:19:56.903Z,1.70
2018-12-13T01:22:24.388Z,1.70
2018-12-13T01:24:51.895Z,1.70
2018-12-13T01:27:20.373Z,1.70
2018-12-13T01:29:48.420Z,1.80
2018-12-13T01:32:16.020Z,1.80
2018-12-13T01:34:44.542Z,1.90
2018-12-13T01:37:12.746Z,1.80
2018-12-13T01:39:40.206Z,1.90
2018-12-13T01:42:07.846Z,1.90
2018-12-13T01:44:36.419Z,1.80
2018-12-13T01:47:04.748Z,1.80
2018-12-13T01:49:33.534Z,1.90
2018-12-13T01:52:01.829Z,1.90
2018-12-13T01:54:30.695Z,1.80
2018-12-13T01:56:58.764Z,1.90
2018-12-13T01:59:26.816Z,1.80
2018-12-13T02:01:54.536Z,1.70
2018-12-13T02:04:23.518Z,1.70
2018-12-13T02:06:51.006Z,1.60
2018-12-13T02:10:48.905Z,1.60
2018-12-13T02:13:16.358Z,1.50
2018-12-13T02:15:44.843Z,1.50
2018-12-13T02:18:13.186Z,1.60
2018-12-13T02:20:40.653Z,1.60
2018-12-13T02:23:08.360Z,1.50
2018-12-13T02:25:35.839Z,1.40
2018-12-13T02:28:04.250Z,1.50
2018-12-13T02:30:31.718Z,1.50
2018-12-13T02:33:00.046Z,1.50
2018-12-13T02:35:28.331Z,1.40
2018-12-13T02:37:56.386Z,1.30
2018-12-13T02:40:24.004Z,1.30
2018-12-13T02:42:52.327Z,1.30
2018-12-13T02:45:20.137Z,1.20
2018-12-13T02:47:48.956Z,1.20
2018-12-13T02:50:16.609Z,1.00
2018-12-13T02:52:44.179Z,0.90
2018-12-13T02:55:12.219Z,1.00
2018-12-13T02:57:40.465Z,0.90
2018-12-13T03:00:08.957Z,1.00
2018-12-13T03:02:36.459Z,1.00
2018-12-13T03:05:05.318Z,0.90
2018-12-13T03:07:33.499Z,0.90
2018-12-13T03:10:01.000Z,0.80
2018-12-13T03:12:29.117Z,0.70
2018-12-13T03:14:56.607Z,0.60
2018-12-13T03:17:24.234Z,0.60
2018-12-13T03:19:51.854Z,0.50
2018-12-13T03:22:19.354Z,0.40
2018-12-13T03:24:47.118Z,0.50
2018-12-13T03:27:15.132Z,0.50
2018-12-13T03:29:42.648Z,0.50
2018-12-13T03:32:10.132Z,0.50
2018-12-13T03:34:38.733Z,0.50
2018-12-13T03:37:06.800Z,0.40
2018-12-13T03:39:34.290Z,0.40
2018-12-13T03:42:02.015Z,0.30
2018-12-13T03:44:29.842Z,0.20
2018-12-13T03:46:58.028Z,0.10
2018-12-13T03:49:25.521Z,0.00
2018-12-13T03:51:53.977Z,-0.20
2018-12-13T03:54:22.263Z,-0.20
2018-12-13T03:56:50.460Z,-0.30
2018-12-13T03:59:18.629Z,-0.30
2018-12-13T04:01:46.676Z,-0.30
2018-12-13T04:04:14.682Z,-0.40
2018-12-13T04:06:43.229Z,-0.40
2018-12-13T04:09:12.364Z,-0.50
2018-12-13T04:11:39.847Z,-0.40
2018-12-13T04:14:07.796Z,-0.50
2018-12-13T04:16:36.997Z,-0.50
2018-12-13T04:19:05.792Z,-0.60
2018-12-13T04:21:33.378Z,-0.70
2018-12-13T04:24:01.585Z,-0.80
2018-12-13T04:26:29.559Z,-0.90
2018-12-13T04:28:57.039Z,-1.10
2018-12-13T04:31:24.582Z,-1.20
2018-12-13T04:33:53.233Z,-1.20
2018-12-13T04:36:21.761Z,-1.30
2018-12-13T04:38:49.297Z,-1.30
2018-12-13T04:41:17.297Z,-1.30
2018-12-13T04:43:44.771Z,-1.30
2018-12-13T04:46:12.242Z,-1.50
2018-12-13T04:48:39.786Z,-1.50
2018-12-13T04:51:07.306Z,-1.70
2018-12-13T04:53:35.494Z,-1.80
2018-12-13T04:56:03.546Z,-1.70
2018-12-13T04:58:31.525Z,-1.70
2018-12-13T05:00:59.015Z,-1.70
2018-12-13T05:03:27.269Z,-1.90
2018-12-13T05:05:56.917Z,-1.90
2018-12-13T05:08:25.333Z,-2.00
2018-12-13T05:10:54.129Z,-2.00
2018-12-13T05:13:21.637Z,-2.10
2018-12-13T05:15:49.713Z,-2.20
2018-12-13T05:18:17.230Z,-2.30
2018-12-13T05:20:45.444Z,-2.40
2018-12-13T05:23:14.429Z,-2.40
2018-12-13T05:25:42.682Z,-2.50
2018-12-13T05:28:11.033Z,-2.60
2018-12-13T05:30:38.530Z,-2.60
2018-12-13T05:33:06.034Z,-2.40
2018-12-13T05:35:33.649Z,-2.40
2018-12-13T05:38:01.146Z,-2.20
2018-12-13T05:40:29.054Z,-2.40
2018-12-13T05:42:58.644Z,-2.30
2018-12-13T05:45:26.148Z,-2.40
2018-12-13T05:47:53.634Z,-2.20
2018-12-13T05:50:21.786Z,-2.20
2018-12-13T05:52:49.927Z,-2.30
2018-12-13T05:55:18.315Z,-2.40
2018-12-13T05:57:46.485Z,-2.50
2018-12-13T06:00:14.629Z,-2.60
2018-12-13T06:02:42.101Z,-2.60
2018-12-13T06:05:11.418Z,-2.60
2018-12-13T06:07:38.906Z,-2.60
2018-12-13T06:10:06.533Z,-2.70
2018-12-13T06:12:34.573Z,-2.80
2018-12-13T06:15:02.045Z,-2.90
2018-12-13T06:17:29.706Z,-2.90
2018-12-13T06:19:57.326Z,-2.90
2018-12-13T06:22:24.822Z,-2.90
2018-12-13T06:24:52.375Z,-3.00
2018-12-13T06:27:21.015Z,-3.10
2018-12-13T06:29:48.985Z,-3.10
2018-12-13T06:32:16.639Z,-3.10
2018-12-13T06:34:44.370Z,-3.10
2018-12-13T06:37:12.736Z,-3.10
2018-12-13T06:39:41.638Z,-3.00
2018-12-13T06:42:10.117Z,-3.00
2018-12-13T06:44:37.992Z,-3.20
2018-12-13T06:47:05.813Z,-3.10
2018-12-13T06:49:33.373Z,-3.20
2018-12-13T06:52:01.375Z,-3.20
2018-12-13T06:54:30.125Z,-3.30
2018-12-13T06:56:58.282Z,-3.30
2018-12-13T06:59:26.418Z,-3.40
2018-12-13T07:01:54.645Z,-3.40
2018-12-13T07:04:22.475Z,-3.30
2018-12-13T07:06:52.486Z,-3.40
2018-12-13T07:09:20.292Z,-3.30
2018-12-13T07:11:48.966Z,-3.40
2018-12-13T07:14:18.062Z,-3.40
2018-12-13T07:16:46.462Z,-3.40
2018-12-13T07:19:13.926Z,-3.50
2018-12-13T07:21:41.508Z,-3.60
2018-12-13T07:24:09.766Z,-3.50
2018-12-13T07:26:37.679Z,-3.50
2018-12-13T07:29:05.192Z,-3.40
2018-12-13T07:31:32.667Z,-3.40
2018-12-13T07:34:00.842Z,-3.40
2018-12-13T07:36:28.335Z,-3.40
2018-12-13T07:38:57.971Z,-3.40
2018-12-13T07:41:25.594Z,-3.30
2018-12-13T07:43:53.675Z,-3.30
2018-12-13T07:46:21.168Z,-3.30
2018-12-13T07:48:49.254Z,-3.30
2018-12-13T07:51:16.774Z,-3.20
2018-12-13T07:53:44.243Z,-3.10
2018-12-13T07:56:13.435Z,-3.00
2018-12-13T07:58:41.611Z,-2.90
2018-12-13T08:01:09.083Z,-2.80
2018-12-13T08:03:37.195Z,-2.70
2018-12-13T08:06:05.641Z,-2.60
2018-12-13T08:08:33.124Z,-2.60
2018-12-13T08:11:00.585Z,-2.50
2018-12-13T08:13:28.467Z,-2.50
2018-12-13T08:15:55.979Z,-2.40
2018-12-13T08:18:23.539Z,-2.40
2018-12-13T08:20:52.154Z,-2.30
2018-12-13T08:23:19.647Z,-2.20
2018-12-13T08:25:47.884Z,-2.20
2018-12-13T08:28:16.366Z,-2.10
2018-12-13T08:30:43.859Z,-1.90
2018-12-13T08:33:12.018Z,-1.90
2018-12-13T08:35:40.050Z,-1.70
2018-12-13T08:38:07.534Z,-1.60
2018-12-13T08:40:35.086Z,-1.50
2018-12-13T08:43:02.589Z,-1.40
2018-12-13T08:45:31.774Z,-1.30
2018-12-13T08:47:59.595Z,-1.20
2018-12-13T08:50:27.765Z,-1.10
2018-12-13T08:52:55.303Z,-1.00
2018-12-13T08:55:23.595Z,-0.90
2018-12-13T08:57:52.597Z,-0.80
2018-12-13T09:00:20.133Z,-0.80
2018-12-13T09:02:47.831Z,-0.70
2018-12-13T09:05:15.899Z,-0.50
2018-12-13T09:07:43.490Z,-0.60
2018-12-13T09:10:12.466Z,-0.60
2018-12-13T09:12:40.537Z,-0.60
2018-12-13T09:15:08.317Z,-0.40
2018-12-13T09:17:35.840Z,-0.30
2018-12-13T09:20:04.127Z,-0.20
2018-12-13T09:22:31.965Z,-0.10
2018-12-13T09:25:00.488Z,0.00
2018-12-13T09:27:28.777Z,0.10
2018-12-13T09:29:57.355Z,0.10
2018-12-13T09:32:25.513Z,0.20
2018-12-13T09:34:53.123Z,0.30
2018-12-13T09:37:20.734Z,0.40
2018-12-13T09:39:48.221Z,0.40
2018-12-13T09:42:15.953Z,0.60
2018-12-13T09:44:44.193Z,0.60
2018-12-13T09:47:11.653Z,0.70
2018-12-13T09:49:39.147Z,0.80
2018-12-13T09:52:06.705Z,0.90
2018-12-13T09:54:35.432Z,1.00
2018-12-13T09:57:04.457Z,1.10
2018-12-13T09:59:33.149Z,1.10
2018-12-13T10:02:00.640Z,1.20
2018-12-13T10:04:28.528Z,1.20
2018-12-13T10:06:56.837Z,1.40
2018-12-13T10:09:24.848Z,1.40
2018-12-13T10:11:52.911Z,1.40
2018-12-13T10:14:20.381Z,1.50
2018-12-13T10:16:48.657Z,1.50
2018-12-13T10:19:16.153Z,1.60
2018-12-13T10:21:43.812Z,1.70
2018-12-13T10:24:12.993Z,1.70
2018-12-13T10:26:40.965Z,1.80
2018-12-13T10:29:08.430Z,1.90
2018-12-13T10:31:36.543Z,2.00
2018-12-13T10:34:04.331Z,2.00
2018-12-13T10:36:31.815Z,2.10
2018-12-13T10:38:59.550Z,2.10
2018-12-13T10:41:27.985Z,2.20
2018-12-13T10:43:56.211Z,2.20
2018-12-13T10:46:24.455Z,2.10
2018-12-13T10:48:52.008Z,2.20
2018-12-13T10:51:21.324Z,2.20
2018-12-13T10:53:49.294Z,2.30
2018-12-13T10:56:17.734Z,2.40
2018-12-13T10:58:45.951Z,2.50
2018-12-13T11:01:19.206Z,2.60
2018-12-13T11:03:47.325Z,2.50
2018-12-13T11:06:15.510Z,2.60
2018-12-13T11:08:43.578Z,2.70
2018-12-13T11:11:11.069Z,2.70
2018-12-13T11:13:39.018Z,2.70
2018-12-13T11:16:07.162Z,2.70
2018-12-13T11:18:34.914Z,2.70
2018-12-13T11:21:02.857Z,2.70
2018-12-13T11:23:30.424Z,2.70
2018-12-13T11:25:59.181Z,2.90
2018-12-13T11:28:43.605Z,3.00
2018-12-13T11:31:11.104Z,3.10
2018-12-13T11:33:38.757Z,3.10
2018-12-13T11:36:06.445Z,3.10
2018-12-13T11:40:04.410Z,3.00
2018-12-13T11:42:32.374Z,3.00
2018-12-13T11:44:59.871Z,3.00
2018-12-13T11:47:27.349Z,3.00
2018-12-13T11:49:55.450Z,3.00
2018-12-13T11:52:23.580Z,3.00
2018-12-13T11:54:51.483Z,3.00
2018-12-13T11:57:19.511Z,3.00
2018-12-13T11:59:47.007Z,3.10
2018-12-13T12:02:14.493Z,3.10
2018-12-13T12:04:42.830Z,3.10
2018-12-13T12:07:10.953Z,3.10
2018-12-13T12:09:38.415Z,3.20
2018-12-13T12:12:05.901Z,3.20
2018-12-13T12:14:33.403Z,3.20
2018-12-13T12:17:01.575Z,3.20
2018-12-13T12:19:30.311Z,3.20
2018-12-13T12:21:58.986Z,3.10
2018-12-13T12:24:26.575Z,3.20
2018-12-13T12:26:54.512Z,3.30
2018-12-13T12:29:22.228Z,3.20
2018-12-13T12:31:49.728Z,3.20
2018-12-13T12:34:17.318Z,3.20
2018-12-13T12:36:45.494Z,3.20
2018-12-13T12:39:18.609Z,3.20
2018-12-13T12:41:45.446Z,3.30
2018-12-13T12:44:12.950Z,3.20
2018-12-13T12:46:40.775Z,3.20
2018-12-13T12:49:08.356Z,3.00
2018-12-13T12:51:35.838Z,3.10
2018-12-13T12:54:04.088Z,3.10
2018-12-13T12:56:32.272Z,3.10
2018-12-13T12:59:00.447Z,3.10
2018-12-13T13:01:28.956Z,3.10
2018-12-13T13:03:57.120Z,3.00
2018-12-13T13:06:25.093Z,3.00
2018-12-13T13:08:53.707Z,3.00
2018-12-13T13:11:21.181Z,2.90
2018-12-13T13:13:48.909Z,2.90
2018-12-13T13:16:16.981Z,2.80
2018-12-13T13:18:44.471Z,2.60
2018-12-13T13:21:12.454Z,2.30
2018-12-13T13:23:39.915Z,2.00
2018-12-13T13:26:07.464Z,1.90
2018-12-13T13:28:35.453Z,1.70
2018-12-13T13:31:02.958Z,1.60
2018-12-13T13:33:31.334Z,1.50
2018-12-13T13:35:58.836Z,1.40
2018-12-13T13:38:27.013Z,1.30
2018-12-13T13:40:54.505Z,1.30
2018-12-13T13:43:22.870Z,1.20
2018-12-13T13:45:51.133Z,1.20
2018-12-13T13:48:18.632Z,1.10
2018-12-13T13:50:46.106Z,1.00
2018-12-13T13:53:13.829Z,0.90
2018-12-13T13:55:43.898Z,0.90
2018-12-13T13:58:12.350Z,0.80
2018-12-13T14:00:39.869Z,0.80
2018-12-13T14:03:07.399Z,0.70
2018-12-13T14:05:35.845Z,0.70
2018-12-13T14:08:03.897Z,0.60
2018-12-13T14:10:31.513Z,0.60
2018-12-13T14:12:59.757Z,0.60
2018-12-13T14:15:27.257Z,0.50
2018-12-13T14:17:55.663Z,0.50
2018-12-13T14:20:23.257Z,0.50
2018-12-13T14:22:51.152Z,0.40
2018-12-13T14:25:18.937Z,0.40
2018-12-13T14:27:46.977Z,0.30
2018-12-13T14:30:14.853Z,0.40
2018-12-13T14:32:42.873Z,0.30
2018-12-13T14:35:11.382Z,0.30
2018-12-13T14:37:38.910Z,0.30
2018-12-13T14:40:06.542Z,0.20
2018-12-13T14:42:34.634Z,0.20
2018-12-13T14:45:02.162Z,0.10
2018-12-13T14:47:30.325Z,0.10
2018-12-13T14:49:59.425Z,0.00
2018-12-13T14:52:26.963Z,-0.10
2018-12-13T14:54:55.166Z,-0.30
2018-12-13T14:57:23.267Z,-0.30
2018-12-13T14:59:50.774Z,-0.40
2018-12-13T15:02:18.953Z,-0.40
2018-12-13T15:04:46.902Z,-0.50
2018-12-13T15:07:15.711Z,-0.60
2018-12-13T15:09:43.173Z,-0.60
2018-12-13T15:12:11.152Z,-0.80
2018-12-13T15:14:39.835Z,-0.80
2018-12-13T15:17:07.360Z,-0.90
2018-12-13T15:19:35.473Z,-1.00
2018-12-13T15:22:02.959Z,-1.00
2018-12-13T15:24:31.525Z,-1.00
2018-12-13T15:26:59.798Z,-1.10
2018-12-13T15:29:27.814Z,-1.20
2018-12-13T15:31:59.342Z,-1.20
2018-12-13T15:34:26.691Z,-1.30
2018-12-13T15:36:54.287Z,-1.30
2018-12-13T15:39:22.569Z,-1.40
2018-12-13T15:41:50.827Z,-1.40
2018-12-13T15:44:19.208Z,-1.50
2018-12-13T15:46:47.550Z,-1.50
2018-12-13T15:49:15.567Z,-1.50
2018-12-13T15:51:43.275Z,-1.60
2018-12-13T15:54:11.405Z,-1.50
2018-12-13T15:56:39.481Z,-1.50
2018-12-13T15:59:07.817Z,-1.50
2018-12-13T16:01:36.845Z,-1.60
2018-12-13T16:04:04.885Z,-1.60
2018-12-13T16:06:32.835Z,-1.60
2018-12-13T16:09:01.040Z,-1.70
2018-12-13T16:11:29.694Z,-1.70
2018-12-13T16:13:58.630Z,-1.60
2018-12-13T16:16:26.142Z,-1.70
2018-12-13T16:18:54.509Z,-1.80
2018-12-13T16:21:22.012Z,-1.70
2018-12-13T16:23:50.890Z,-1.80
2018-12-13T16:26:19.987Z,-1.70
2018-12-13T16:28:48.103Z,-1.70
2018-12-13T16:31:15.647Z,-1.70
2018-12-13T16:33:45.350Z,-1.60
2018-12-13T16:36:12.839Z,-1.60
2018-12-13T16:38:41.289Z,-1.60
2018-12-13T16:41:10.278Z,-1.60
2018-12-13T16:43:39.913Z,-1.60
2018-12-13T16:46:10.497Z,-1.60
2018-12-13T16:48:37.983Z,-1.50
2018-12-13T16:51:06.126Z,-1.60
2018-12-13T16:53:35.638Z,-1.50
2018-12-13T16:56:03.271Z,-1.40
2018-12-13T16:58:31.148Z,-1.40
2018-12-13T17:00:59.811Z,-1.30
2018-12-13T17:03:38.430Z,-1.30
2018-12-13T17:06:07.165Z,-1.20
2018-12-13T17:08:35.158Z,-1.30
2018-12-13T17:11:03.821Z,-1.20
2018-12-13T17:13:31.570Z,-1.20
2018-12-13T17:15:59.518Z,-1.10
2018-12-13T17:18:28.057Z,-1.10
2018-12-13T17:20:55.560Z,-1.10
2018-12-13T17:23:25.881Z,-1.10
2018-12-13T17:25:55.452Z,-1.20
2018-12-13T17:28:23.452Z,-1.20
2018-12-13T17:30:54.228Z,-1.20
2018-12-13T17:33:23.537Z,-1.20
2018-12-13T17:35:52.017Z,-1.10
2018-12-13T17:38:19.477Z,-1.20
2018-12-13T17:40:48.388Z,-1.10
2018-12-13T17:43:15.873Z,-1.00
2018-12-13T17:45:43.377Z,-1.00
2018-12-13T17:48:11.183Z,-0.90
2018-12-13T17:50:38.710Z,-0.90
2018-12-13T17:53:07.734Z,-0.90
2018-12-13T17:55:36.001Z,-0.80
2018-12-13T17:58:04.734Z,-0.80
2018-12-13T18:00:33.712Z,-0.70
2018-12-13T18:03:02.545Z,-0.70
2018-12-13T18:05:31.385Z,-0.70
2018-12-13T18:08:00.333Z,-0.60
2018-12-13T18:10:29.538Z,-0.60
2018-12-13T18:12:57.477Z,-0.60
2018-12-13T18:15:25.095Z,-0.50
2018-12-13T18:17:52.785Z,-0.50
2018-12-13T18:20:22.097Z,-0.50
2018-12-13T18:22:50.166Z,-0.60
2018-12-13T18:25:18.437Z,-0.70
2018-12-13T18:27:46.630Z,-0.90
2018-12-13T18:30:14.697Z,-0.90
2018-12-13T18:32:42.774Z,-1.00
2018-12-13T18:35:11.069Z,-1.10
2018-12-13T18:37:39.198Z,-1.10
2018-12-13T18:40:07.838Z,-1.20
2018-12-13T18:42:37.070Z,-1.40
2018-12-13T18:45:05.773Z,-1.40
2018-12-13T18:47:33.978Z,-1.50
2018-12-13T18:50:03.101Z,-1.60
2018-12-13T18:52:31.048Z,-1.60
2018-12-13T18:54:59.264Z,-1.60
2018-12-13T18:57:27.737Z,-1.70
2018-12-13T18:59:55.318Z,-1.70
2018-12-13T19:02:23.761Z,-1.70
2018-12-13T19:04:51.615Z,-1.70
2018-12-13T19:07:21.571Z,-1.70
2018-12-13T19:09:50.489Z,-1.70
2018-12-13T19:12:20.837Z,-1.70
2018-12-13T19:14:49.423Z,-1.80
2018-12-13T19:17:17.005Z,-1.70
2018-12-13T19:19:45.327Z,-1.80
2018-12-13T19:22:12.929Z,-1.90
2018-12-13T19:24:41.413Z,-2.00
2018-12-13T19:27:09.469Z,-1.90
2018-12-13T19:29:37.581Z,-2.00
2018-12-13T19:32:05.436Z,-2.10
2018-12-13T19:34:33.675Z,-2.20
2018-12-13T19:37:01.875Z,-2.20
2018-12-13T19:39:29.373Z,-2.20
2018-12-13T19:41:57.270Z,-2.20
2018-12-13T19:44:27.962Z,-2.10
2018-12-13T19:46:56.189Z,-2.10
2018-12-13T19:49:23.880Z,-2.00
2018-12-13T19:51:53.805Z,-2.00
2018-12-13T19:54:22.560Z,-2.00
2018-12-13T19:56:51.032Z,-2.00
2018-12-13T19:59:19.869Z,-2.10
2018-12-13T20:01:48.379Z,-2.10
2018-12-13T20:04:16.637Z,-2.10
2018-12-13T20:06:44.910Z,-2.10
2018-12-13T20:09:12.407Z,-2.10
2018-12-13T20:11:39.893Z,-2.00
2018-12-13T20:14:08.096Z,-2.00
2018-12-13T20:16:35.823Z,-1.90
2018-12-13T20:19:04.373Z,-2.00
2018-12-13T20:21:31.905Z,-2.00
2018-12-13T20:24:00.756Z,-2.00
2018-12-13T20:26:30.933Z,-2.10
2018-12-13T20:28:59.361Z,-2.00
2018-12-13T20:31:27.239Z,-2.00
2018-12-13T20:33:55.358Z,-2.10
2018-12-13T20:36:24.115Z,-2.10
2018-12-13T20:38:51.645Z,-2.10
2018-12-13T20:41:19.645Z,-2.20
2018-12-13T20:43:47.730Z,-2.20
2018-12-13T20:46:15.342Z,-2.10
2018-12-13T20:48:42.854Z,-2.20
2018-12-13T20:51:11.848Z,-2.20
2018-12-13T20:53:40.433Z,-2.30
2018-12-13T20:56:07.968Z,-2.30
2018-12-13T20:58:36.359Z,-2.30
2018-12-13T21:01:04.702Z,-2.50
2018-12-13T21:03:32.987Z,-2.50
2018-12-13T21:06:01.227Z,-2.50
2018-12-13T21:08:28.998Z,-2.60
2018-12-13T21:10:56.531Z,-2.60
2018-12-13T21:13:25.022Z,-2.60
2018-12-13T21:15:53.713Z,-2.60
2018-12-13T21:18:21.358Z,-2.70
2018-12-13T21:20:49.456Z,-2.70
2018-12-13T21:23:17.670Z,-2.80
2018-12-13T21:25:46.447Z,-2.80
2018-12-13T21:28:14.489Z,-2.80
2018-12-13T21:30:42.000Z,-2.80
2018-12-13T21:33:10.736Z,-2.80
2018-12-13T21:35:38.829Z,-2.90
2018-12-13T21:38:06.586Z,-2.90
2018-12-13T21:40:35.348Z,-2.90
2018-12-13T21:43:03.342Z,-2.90
2018-12-13T21:45:31.515Z,-3.00
2018-12-13T21:47:59.419Z,-3.00
2018-12-13T21:50:26.923Z,-2.90
2018-12-13T21:52:54.553Z,-2.90
2018-12-13T21:55:22.707Z,-3.00
2018-12-13T21:57:50.796Z,-2.90
2018-12-13T22:00:18.816Z,-3.00
2018-12-13T22:02:47.093Z,-3.10
2018-12-13T22:05:14.781Z,-3.00
2018-12-13T22:07:42.925Z,-2.90
2018-12-13T22:10:11.974Z,-2.90
2018-12-13T22:12:40.180Z,-2.80
2018-12-13T22:15:11.078Z,-2.80
2018-12-13T22:17:38.575Z,-2.70
2018-12-13T22:20:07.392Z,-2.80
2018-12-13T22:22:35.551Z,-2.80
2018-12-13T22:25:05.448Z,-2.70
2018-12-13T22:27:34.013Z,-2.70
2018-12-13T22:30:01.582Z,-2.70
2018-12-13T22:32:29.680Z,-2.60
2018-12-13T22:34:58.117Z,-2.60
2018-12-13T22:37:26.047Z,-2.60
2018-12-13T22:39:53.558Z,-2.60
2018-12-13T22:42:21.699Z,-2.70
2018-12-13T22:44:49.664Z,-2.80
2018-12-13T22:47:19.486Z,-2.80
2018-12-13T22:49:46.980Z,-2.80
2018-12-13T22:52:14.516Z,-2.80
2018-12-13T22:54:43.012Z,-2.70
2018-12-13T22:57:12.304Z,-2.60
2018-12-13T22:59:39.981Z,-2.50
2018-12-13T23:02:07.609Z,-2.50
2018-12-13T23:04:35.424Z,-2.50
2018-12-13T23:07:04.155Z,-2.70
2018-12-13T23:09:32.709Z,-2.70
2018-12-13T23:12:01.298Z,-2.70
2018-12-13T23:14:29.019Z,-2.70
2018-12-13T23:16:57.536Z,-2.90
2018-12-13T23:19:25.009Z,-2.90
2018-12-13T23:21:52.976Z,-2.90
2018-12-13T23:24:21.046Z,-2.90
2018-12-13T23:26:49.718Z,-3.00
2018-12-13T23:29:17.226Z,-3.00
2018-12-13T23:31:44.714Z,-3.10
2018-12-13T23:34:12.705Z,-3.20
2018-12-13T23:36:40.755Z,-3.30
2018-12-13T23:39:08.251Z,-3.30
2018-12-13T23:41:39.279Z,-3.30
2018-12-13T23:44:07.802Z,-3.40
2018-12-13T23:46:35.288Z,-3.40
2018-12-13T23:49:03.026Z,-3.40
2018-12-13T23:51:31.286Z,-3.50
2018-12-13T23:54:00.211Z,-3.50
2018-12-13T23:56:28.702Z,-3.70
2018-12-13T23:58:58.074Z,-3.70
